Portada
METAR-TAF:

METAR-TAF

Aeroports :

Armilla

Granada, Espanya

latitud: 37-08N, longitud: 003-38-08W, altitud: 700 m

Observació

L'informe es va fer fa 6 hores i 49 minuts, a les 17:00 UTC
Vent 4 kt del Sud/Sud-Oest
Temperatura 15°C
Humitat 51%
Pressió 1016 hPa
Visibilitat 10 km o més
Escasses núvols a una alçada de 5500 ft

METAR: LEGA 211700Z 20004KT 9999 FEW055 15/05 Q1016

Hora: 01:49 (23:49 UTC)

Pronòstic

L'informe es va fer fa 9 hores i 49 minuts, a les 14:00 UTC
Pronòstic vàlid del 21 a les 15 UTC al 21 a les 24 UTC
Vent 5 kt del Oest
Visibilitat 10 km o més
Escasses núvols a una alçada de 4500 ft

TAF: LEGA 211400Z 2115/2124 27005KT 9999 FEW045

Observacions i pronòstics meteorològics de més de 4000 aeroports (METAR i TAF).

Les estacions disponibles són els punts grocs i vermells al mapa.

Posi el ratolí al punt desitjat per veure el nom de l'estació.

Feu clic per veure les observacions i els pronòstics meteorològics.

Per canviar el mapa: feu clic els botons verds amb una creu de color negre per apropar; al botó verd amb un guió per allunyar la imatge; o en les fletxes verdes per a mapes adjacents.


METAR-TAF: